sensor_id;sensor_type;location;lat;lon;timestamp;temperature;humidity
20370;DHT22;10344;47.592;9.600;2022-10-16T08:22:53;16.80;99.90
20370;DHT22;10344;47.592;9.600;2022-10-16T08:25:23;17.30;99.90
20370;DHT22;10344;47.592;9.600;2022-10-16T08:27:49;17.80;99.90
20370;DHT22;10344;47.592;9.600;2022-10-16T08:30:15;18.10;99.90
20370;DHT22;10344;47.592;9.600;2022-10-16T08:32:43;18.20;99.90
20370;DHT22;10344;47.592;9.600;2022-10-16T08:35:20;18.00;99.90
20370;DHT22;10344;47.592;9.600;2022-10-16T08:37:57;17.90;99.90
20370;DHT22;10344;47.592;9.600;2022-10-16T08:40:41;17.80;99.90
20370;DHT22;10344;47.592;9.600;2022-10-16T08:43:35;17.80;99.90
20370;DHT22;10344;47.592;9.600;2022-10-16T08:48:58;17.70;99.90
20370;DHT22;10344;47.592;9.600;2022-10-16T08:51:30;18.00;99.90
20370;DHT22;10344;47.592;9.600;2022-10-16T08:53:57;18.30;99.90
20370;DHT22;10344;47.592;9.600;2022-10-16T08:56:26;18.50;99.90
20370;DHT22;10344;47.592;9.600;2022-10-16T08:58:53;18.60;99.90
20370;DHT22;10344;47.592;9.600;2022-10-16T09:01:21;18.50;99.90
20370;DHT22;10344;47.592;9.600;2022-10-16T09:06:50;19.70;99.90
20370;DHT22;10344;47.592;9.600;2022-10-16T09:09:41;20.80;99.90
20370;DHT22;10344;47.592;9.600;2022-10-16T09:12:20;21.80;99.90
20370;DHT22;10344;47.592;9.600;2022-10-16T09:18:16;22.90;99.90
20370;DHT22;10344;47.592;9.600;2022-10-16T09:21:16;23.40;99.90
20370;DHT22;10344;47.592;9.600;2022-10-16T09:23:43;23.80;99.90
20370;DHT22;10344;47.592;9.600;2022-10-16T09:26:12;24.10;99.90
20370;DHT22;10344;47.592;9.600;2022-10-16T09:28:38;24.10;99.90
20370;DHT22;10344;47.592;9.600;2022-10-16T09:31:04;24.30;99.90
20370;DHT22;10344;47.592;9.600;2022-10-16T09:33:34;24.40;99.90
20370;DHT22;10344;47.592;9.600;2022-10-16T09:36:03;24.40;99.90
20370;DHT22;10344;47.592;9.600;2022-10-16T09:38:32;23.90;99.90
20370;DHT22;10344;47.592;9.600;2022-10-16T09:41:16;23.90;99.90
20370;DHT22;10344;47.592;9.600;2022-10-16T09:48:58;23.60;99.90
20370;DHT22;10344;47.592;9.600;2022-10-16T09:51:34;23.30;99.90
20370;DHT22;10344;47.592;9.600;2022-10-16T09:54:02;23.40;99.90
20370;DHT22;10344;47.592;9.600;2022-10-16T09:56:37;23.40;99.90
20370;DHT22;10344;47.592;9.600;2022-10-16T09:59:18;23.90;99.90
20370;DHT22;10344;47.592;9.600;2022-10-16T10:01:47;24.40;99.90
20370;DHT22;10344;47.592;9.600;2022-10-16T10:04:14;24.80;99.90
20370;DHT22;10344;47.592;9.600;2022-10-16T10:06:45;25.30;99.90
20370;DHT22;10344;47.592;9.600;2022-10-16T10:09:19;25.70;99.90
20370;DHT22;10344;47.592;9.600;2022-10-16T10:11:49;25.80;99.90
20370;DHT22;10344;47.592;9.600;2022-10-16T10:16:46;25.70;99.90
20370;DHT22;10344;47.592;9.600;2022-10-16T10:30:25;26.40;99.90
20370;DHT22;10344;47.592;9.600;2022-10-16T10:38:30;25.40;99.90
20370;DHT22;10344;47.592;9.600;2022-10-16T10:41:27;24.70;99.90
20370;DHT22;10344;47.592;9.600;2022-10-16T10:44:06;24.80;99.90
20370;DHT22;10344;47.592;9.600;2022-10-16T10:46:42;25.00;99.90
20370;DHT22;10344;47.592;9.600;2022-10-16T10:54:50;24.80;99.90
20370;DHT22;10344;47.592;9.600;2022-10-16T10:57:41;24.80;99.90
20370;DHT22;10344;47.592;9.600;2022-10-16T11:05:44;24.80;99.90
20370;DHT22;10344;47.592;9.600;2022-10-16T11:08:18;24.60;99.90
20370;DHT22;10344;47.592;9.600;2022-10-16T11:10:57;24.30;99.90
20370;DHT22;10344;47.592;9.600;2022-10-16T11:14:04;24.60;99.90
20370;DHT22;10344;47.592;9.600;2022-10-16T11:16:33;24.40;99.90
20370;DHT22;10344;47.592;9.600;2022-10-16T11:19:16;24.10;99.90
20370;DHT22;10344;47.592;9.600;2022-10-16T11:21:51;24.30;99.90
20370;DHT22;10344;47.592;9.600;2022-10-16T11:24:24;24.50;99.90
20370;DHT22;10344;47.592;9.600;2022-10-16T11:26:54;24.60;99.90
20370;DHT22;10344;47.592;9.600;2022-10-16T11:29:26;24.70;99.90
20370;DHT22;10344;47.592;9.600;2022-10-16T11:32:01;24.80;99.90
20370;DHT22;10344;47.592;9.600;2022-10-16T11:34:36;24.70;99.90
20370;DHT22;10344;47.592;9.600;2022-10-16T11:37:10;24.60;99.90
20370;DHT22;10344;47.592;9.600;2022-10-16T11:39:38;24.70;99.90
20370;DHT22;10344;47.592;9.600;2022-10-16T11:42:18;25.00;99.90
20370;DHT22;10344;47.592;9.600;2022-10-16T11:47:34;25.70;99.90
20370;DHT22;10344;47.592;9.600;2022-10-16T11:55:38;25.40;99.90
20370;DHT22;10344;47.592;9.600;2022-10-16T12:00:53;25.50;99.90
20370;DHT22;10344;47.592;9.600;2022-10-16T12:03:31;25.50;99.90
20370;DHT22;10344;47.592;9.600;2022-10-16T12:08:27;25.60;99.90
20370;DHT22;10344;47.592;9.600;2022-10-16T12:10:53;25.60;99.90
20370;DHT22;10344;47.592;9.600;2022-10-16T12:13:38;25.70;99.90
20370;DHT22;10344;47.592;9.600;2022-10-16T12:18:45;26.40;99.90
20370;DHT22;10344;47.592;9.600;2022-10-16T12:21:13;26.60;99.90
20370;DHT22;10344;47.592;9.600;2022-10-16T12:23:52;26.70;99.90
20370;DHT22;10344;47.592;9.600;2022-10-16T12:28:50;26.40;99.90
20370;DHT22;10344;47.592;9.600;2022-10-16T12:31:17;25.80;99.90
20370;DHT22;10344;47.592;9.600;2022-10-16T12:34:04;25.60;99.90
20370;DHT22;10344;47.592;9.600;2022-10-16T12:36:33;25.30;99.90
20370;DHT22;10344;47.592;9.600;2022-10-16T12:39:00;25.00;99.90
20370;DHT22;10344;47.592;9.600;2022-10-16T12:43:53;24.60;99.90
20370;DHT22;10344;47.592;9.600;2022-10-16T12:49:50;23.60;99.90
20370;DHT22;10344;47.592;9.600;2022-10-16T12:51:51;23.40;99.90
20370;DHT22;10344;47.592;9.600;2022-10-16T12:57:07;23.10;99.90
20370;DHT22;10344;47.592;9.600;2022-10-16T13:02:34;23.00;99.90
20370;DHT22;10344;47.592;9.600;2022-10-16T13:13:57;22.60;99.90
20370;DHT22;10344;47.592;9.600;2022-10-16T13:29:09;21.80;99.90
20370;DHT22;10344;47.592;9.600;2022-10-16T13:31:38;21.90;99.90
20370;DHT22;10344;47.592;9.600;2022-10-16T13:34:05;22.00;99.90
20370;DHT22;10344;47.592;9.600;2022-10-16T13:36:47;22.00;99.90
20370;DHT22;10344;47.592;9.600;2022-10-16T13:39:29;22.20;99.90
20370;DHT22;10344;47.592;9.600;2022-10-16T13:42:04;22.30;99.90
20370;DHT22;10344;47.592;9.600;2022-10-16T13:44:41;22.40;99.90
20370;DHT22;10344;47.592;9.600;2022-10-16T13:47:22;22.40;99.90
20370;DHT22;10344;47.592;9.600;2022-10-16T13:50:09;22.40;99.90
20370;DHT22;10344;47.592;9.600;2022-10-16T13:52:36;22.40;99.90
20370;DHT22;10344;47.592;9.600;2022-10-16T13:55:04;22.40;99.90
20370;DHT22;10344;47.592;9.600;2022-10-16T13:57:35;22.50;99.90
20370;DHT22;10344;47.592;9.600;2022-10-16T14:00:00;22.40;99.90
20370;DHT22;10344;47.592;9.600;2022-10-16T14:02:33;22.40;99.90
20370;DHT22;10344;47.592;9.600;2022-10-16T14:05:01;22.40;99.90
20370;DHT22;10344;47.592;9.600;2022-10-16T14:07:32;22.40;99.90
20370;DHT22;10344;47.592;9.600;2022-10-16T14:10:04;22.30;99.90
20370;DHT22;10344;47.592;9.600;2022-10-16T14:12:30;22.30;99.90
20370;DHT22;10344;47.592;9.600;2022-10-16T14:14:57;22.30;99.90
20370;DHT22;10344;47.592;9.600;2022-10-16T14:17:26;22.30;99.90
20370;DHT22;10344;47.592;9.600;2022-10-16T14:19:55;22.50;99.90
20370;DHT22;10344;47.592;9.600;2022-10-16T14:22:38;22.60;99.90
20370;DHT22;10344;47.592;9.600;2022-10-16T14:38:25;22.70;99.90
20370;DHT22;10344;47.592;9.600;2022-10-16T14:40:51;22.70;99.90
20370;DHT22;10344;47.592;9.600;2022-10-16T14:43:33;22.70;99.90
20370;DHT22;10344;47.592;9.600;2022-10-16T14:46:00;22.60;99.90
20370;DHT22;10344;47.592;9.600;2022-10-16T14:48:26;22.70;99.90
20370;DHT22;10344;47.592;9.600;2022-10-16T14:50:54;22.60;99.90
20370;DHT22;10344;47.592;9.600;2022-10-16T14:53:20;22.60;99.90
20370;DHT22;10344;47.592;9.600;2022-10-16T14:55:46;22.60;99.90
20370;DHT22;10344;47.592;9.600;2022-10-16T14:58:16;22.60;99.90
20370;DHT22;10344;47.592;9.600;2022-10-16T15:00:43;22.50;99.90
20370;DHT22;10344;47.592;9.600;2022-10-16T15:03:08;22.50;99.90
20370;DHT22;10344;47.592;9.600;2022-10-16T15:05:34;22.30;99.90
20370;DHT22;10344;47.592;9.600;2022-10-16T15:08:00;22.30;99.90
20370;DHT22;10344;47.592;9.600;2022-10-16T15:10:27;22.10;99.90
20370;DHT22;10344;47.592;9.600;2022-10-16T15:12:54;22.10;99.90
20370;DHT22;10344;47.592;9.600;2022-10-16T15:17:52;21.70;99.90
20370;DHT22;10344;47.592;9.600;2022-10-16T15:20:20;21.40;99.90
20370;DHT22;10344;47.592;9.600;2022-10-16T15:22:46;21.10;99.90
20370;DHT22;10344;47.592;9.600;2022-10-16T15:27:59;20.60;99.90
20370;DHT22;10344;47.592;9.600;2022-10-16T15:30:25;20.40;99.90
20370;DHT22;10344;47.592;9.600;2022-10-16T15:32:51;20.30;99.90
20370;DHT22;10344;47.592;9.600;2022-10-16T15:35:17;20.30;99.90
20370;DHT22;10344;47.592;9.600;2022-10-16T15:37:48;20.20;99.90
20370;DHT22;10344;47.592;9.600;2022-10-16T15:40:14;20.00;99.90
20370;DHT22;10344;47.592;9.600;2022-10-16T15:42:42;20.00;99.90
20370;DHT22;10344;47.592;9.600;2022-10-16T15:45:09;19.80;99.90
20370;DHT22;10344;47.592;9.600;2022-10-16T15:47:34;19.70;99.90
20370;DHT22;10344;47.592;9.600;2022-10-16T15:50:00;19.50;99.90
20370;DHT22;10344;47.592;9.600;2022-10-16T15:52:26;19.50;99.90
20370;DHT22;10344;47.592;9.600;2022-10-16T15:54:54;19.40;99.90
20370;DHT22;10344;47.592;9.600;2022-10-16T15:57:20;19.40;99.90
20370;DHT22;10344;47.592;9.600;2022-10-16T15:59:46;19.30;99.90
20370;DHT22;10344;47.592;9.600;2022-10-16T16:02:11;19.30;99.90
20370;DHT22;10344;47.592;9.600;2022-10-16T16:04:39;19.20;99.90
20370;DHT22;10344;47.592;9.600;2022-10-16T16:07:05;19.10;99.90
20370;DHT22;10344;47.592;9.600;2022-10-16T16:09:33;19.00;99.90
20370;DHT22;10344;47.592;9.600;2022-10-16T16:11:59;18.90;99.90
20370;DHT22;10344;47.592;9.600;2022-10-16T16:14:26;18.80;99.90
20370;DHT22;10344;47.592;9.600;2022-10-16T16:16:54;18.70;99.90
20370;DHT22;10344;47.592;9.600;2022-10-16T16:19:20;18.60;99.90
20370;DHT22;10344;47.592;9.600;2022-10-16T16:21:49;18.50;99.90
20370;DHT22;10344;47.592;9.600;2022-10-16T16:24:17;18.40;99.90
20370;DHT22;10344;47.592;9.600;2022-10-16T16:26:45;18.30;99.90
20370;DHT22;10344;47.592;9.600;2022-10-16T16:29:12;18.20;99.90
20370;DHT22;10344;47.592;9.600;2022-10-16T16:31:42;18.10;99.90
20370;DHT22;10344;47.592;9.600;2022-10-16T16:34:08;18.00;99.90
20370;DHT22;10344;47.592;9.600;2022-10-16T16:36:34;17.90;99.90
20370;DHT22;10344;47.592;9.600;2022-10-16T16:39:00;17.80;99.90
20370;DHT22;10344;47.592;9.600;2022-10-16T16:41:27;17.70;99.90
20370;DHT22;10344;47.592;9.600;2022-10-16T16:44:01;17.60;99.90
20370;DHT22;10344;47.592;9.600;2022-10-16T16:46:27;17.50;99.90
20370;DHT22;10344;47.592;9.600;2022-10-16T16:48:52;17.40;99.90
20370;DHT22;10344;47.592;9.600;2022-10-16T16:51:21;17.40;99.90
20370;DHT22;10344;47.592;9.600;2022-10-16T16:53:49;17.30;99.90
20370;DHT22;10344;47.592;9.600;2022-10-16T16:56:16;17.20;99.90
20370;DHT22;10344;47.592;9.600;2022-10-16T16:58:45;17.10;99.90
20370;DHT22;10344;47.592;9.600;2022-10-16T17:01:12;17.00;99.90
20370;DHT22;10344;47.592;9.600;2022-10-16T17:03:42;17.00;99.90
20370;DHT22;10344;47.592;9.600;2022-10-16T17:06:14;16.90;99.90
20370;DHT22;10344;47.592;9.600;2022-10-16T17:08:41;16.80;99.90
20370;DHT22;10344;47.592;9.600;2022-10-16T17:11:15;16.80;99.90
20370;DHT22;10344;47.592;9.600;2022-10-16T17:13:41;16.70;99.90
20370;DHT22;10344;47.592;9.600;2022-10-16T17:16:08;16.70;99.90
20370;DHT22;10344;47.592;9.600;2022-10-16T17:18:36;16.60;99.90
20370;DHT22;10344;47.592;9.600;2022-10-16T17:21:10;16.50;99.90
20370;DHT22;10344;47.592;9.600;2022-10-16T17:23:42;16.50;99.90
20370;DHT22;10344;47.592;9.600;2022-10-16T17:26:17;16.40;99.90
20370;DHT22;10344;47.592;9.600;2022-10-16T17:28:43;16.30;99.90
20370;DHT22;10344;47.592;9.600;2022-10-16T17:33:59;16.30;99.90
20370;DHT22;10344;47.592;9.600;2022-10-16T17:36:31;16.10;99.90
20370;DHT22;10344;47.592;9.600;2022-10-16T17:39:15;16.10;99.90
20370;DHT22;10344;47.592;9.600;2022-10-16T17:42:00;15.90;99.90
20370;DHT22;10344;47.592;9.600;2022-10-16T18:11:25;15.30;99.90
20370;DHT22;10344;47.592;9.600;2022-10-16T19:45:09;14.20;99.90
20370;DHT22;10344;47.592;9.600;2022-10-16T19:48:03;14.20;99.90
20370;DHT22;10344;47.592;9.600;2022-10-16T19:50:35;14.20;99.90
20370;DHT22;10344;47.592;9.600;2022-10-16T19:53:09;14.20;99.90
20370;DHT22;10344;47.592;9.600;2022-10-16T19:56:06;14.10;99.90
20370;DHT22;10344;47.592;9.600;2022-10-16T19:58:56;14.10;99.90
20370;DHT22;10344;47.592;9.600;2022-10-16T20:01:30;14.00;99.90
20370;DHT22;10344;47.592;9.600;2022-10-16T20:04:20;13.90;99.90
20370;DHT22;10344;47.592;9.600;2022-10-16T20:07:06;13.90;99.90
20370;DHT22;10344;47.592;9.600;2022-10-16T20:09:47;13.90;99.90
20370;DHT22;10344;47.592;9.600;2022-10-16T20:12:33;13.80;99.90
20370;DHT22;10344;47.592;9.600;2022-10-16T20:15:05;13.80;99.90
20370;DHT22;10344;47.592;9.600;2022-10-16T20:17:33;13.80;99.90
20370;DHT22;10344;47.592;9.600;2022-10-16T20:20:05;13.80;99.90
20370;DHT22;10344;47.592;9.600;2022-10-16T20:22:48;13.70;99.90
20370;DHT22;10344;47.592;9.600;2022-10-16T20:25:59;13.70;99.90
20370;DHT22;10344;47.592;9.600;2022-10-16T20:28:41;13.70;99.90
20370;DHT22;10344;47.592;9.600;2022-10-16T20:31:22;13.70;99.90
20370;DHT22;10344;47.592;9.600;2022-10-16T20:34:28;13.60;99.90
20370;DHT22;10344;47.592;9.600;2022-10-16T20:37:16;13.60;99.90
20370;DHT22;10344;47.592;9.600;2022-10-16T20:39:53;13.60;99.90
20370;DHT22;10344;47.592;9.600;2022-10-16T20:42:24;13.60;99.90
20370;DHT22;10344;47.592;9.600;2022-10-16T20:45:17;13.50;99.90
20370;DHT22;10344;47.592;9.600;2022-10-16T20:47:52;13.50;99.90
20370;DHT22;10344;47.592;9.600;2022-10-16T20:50:18;13.40;99.90
20370;DHT22;10344;47.592;9.600;2022-10-16T20:52:57;13.50;99.90
20370;DHT22;10344;47.592;9.600;2022-10-16T20:56:12;13.40;99.90
20370;DHT22;10344;47.592;9.600;2022-10-16T20:58:45;13.50;99.90
20370;DHT22;10344;47.592;9.600;2022-10-16T21:01:21;13.50;99.90
20370;DHT22;10344;47.592;9.600;2022-10-16T21:03:58;13.50;99.90
20370;DHT22;10344;47.592;9.600;2022-10-16T21:06:26;13.50;99.90
20370;DHT22;10344;47.592;9.600;2022-10-16T21:09:06;13.50;99.90
20370;DHT22;10344;47.592;9.600;2022-10-16T21:12:27;13.50;99.90
20370;DHT22;10344;47.592;9.600;2022-10-16T21:15:23;13.40;99.90
20370;DHT22;10344;47.592;9.600;2022-10-16T21:18:27;13.50;99.90
20370;DHT22;10344;47.592;9.600;2022-10-16T21:21:28;13.40;99.90
20370;DHT22;10344;47.592;9.600;2022-10-16T21:24:05;13.40;99.90
20370;DHT22;10344;47.592;9.600;2022-10-16T21:26:41;13.40;99.90
20370;DHT22;10344;47.592;9.600;2022-10-16T21:29:12;13.30;99.90
20370;DHT22;10344;47.592;9.600;2022-10-16T21:31:42;13.30;99.90
20370;DHT22;10344;47.592;9.600;2022-10-16T21:34:33;13.30;99.90
20370;DHT22;10344;47.592;9.600;2022-10-16T21:37:02;13.30;99.90
20370;DHT22;10344;47.592;9.600;2022-10-16T21:39:45;13.30;99.90
20370;DHT22;10344;47.592;9.600;2022-10-16T21:42:25;13.20;99.90
20370;DHT22;10344;47.592;9.600;2022-10-16T21:44:55;13.20;99.90
20370;DHT22;10344;47.592;9.600;2022-10-16T21:47:23;13.20;99.90
20370;DHT22;10344;47.592;9.600;2022-10-16T21:49:53;13.20;99.90
20370;DHT22;10344;47.592;9.600;2022-10-16T21:52:44;13.20;99.90
20370;DHT22;10344;47.592;9.600;2022-10-16T21:55:19;13.30;99.90
20370;DHT22;10344;47.592;9.600;2022-10-16T21:57:48;13.20;99.90
20370;DHT22;10344;47.592;9.600;2022-10-16T22:00:28;13.20;99.90
20370;DHT22;10344;47.592;9.600;2022-10-16T22:03:06;13.10;99.90
20370;DHT22;10344;47.592;9.600;2022-10-16T22:06:00;13.10;99.90
20370;DHT22;10344;47.592;9.600;2022-10-16T22:08:28;13.00;99.90
20370;DHT22;10344;47.592;9.600;2022-10-16T22:11:22;13.00;99.90
20370;DHT22;10344;47.592;9.600;2022-10-16T22:14:06;12.90;99.90
20370;DHT22;10344;47.592;9.600;2022-10-16T22:17:07;12.90;99.90
20370;DHT22;10344;47.592;9.600;2022-10-16T22:19:47;12.90;99.90
20370;DHT22;10344;47.592;9.600;2022-10-16T22:22:20;12.90;99.90
20370;DHT22;10344;47.592;9.600;2022-10-16T22:24:55;12.80;99.90
20370;DHT22;10344;47.592;9.600;2022-10-16T22:27:46;12.80;99.90
20370;DHT22;10344;47.592;9.600;2022-10-16T22:30:16;12.80;99.90
20370;DHT22;10344;47.592;9.600;2022-10-16T22:33:29;12.80;99.90
20370;DHT22;10344;47.592;9.600;2022-10-16T22:36:41;12.70;99.90
20370;DHT22;10344;47.592;9.600;2022-10-16T22:39:17;12.70;99.90
20370;DHT22;10344;47.592;9.600;2022-10-16T22:41:48;12.70;99.90
20370;DHT22;10344;47.592;9.600;2022-10-16T22:44:24;12.60;99.90
20370;DHT22;10344;47.592;9.600;2022-10-16T22:47:16;12.70;99.90
20370;DHT22;10344;47.592;9.600;2022-10-16T22:49:44;12.60;99.90
20370;DHT22;10344;47.592;9.600;2022-10-16T22:52:32;12.60;99.90
20370;DHT22;10344;47.592;9.600;2022-10-16T22:55:04;12.60;99.90
20370;DHT22;10344;47.592;9.600;2022-10-16T22:57:56;12.60;99.90
20370;DHT22;10344;47.592;9.600;2022-10-16T23:00:32;12.50;99.90
20370;DHT22;10344;47.592;9.600;2022-10-16T23:03:26;12.50;99.90
20370;DHT22;10344;47.592;9.600;2022-10-16T23:05:56;12.50;99.90
20370;DHT22;10344;47.592;9.600;2022-10-16T23:08:44;12.60;99.90
20370;DHT22;10344;47.592;9.600;2022-10-16T23:11:41;12.50;99.90
20370;DHT22;10344;47.592;9.600;2022-10-16T23:14:31;12.60;99.90
20370;DHT22;10344;47.592;9.600;2022-10-16T23:17:03;12.70;99.90
20370;DHT22;10344;47.592;9.600;2022-10-16T23:19:38;12.60;99.90
20370;DHT22;10344;47.592;9.600;2022-10-16T23:22:06;12.70;99.90
20370;DHT22;10344;47.592;9.600;2022-10-16T23:25:05;12.70;99.90
20370;DHT22;10344;47.592;9.600;2022-10-16T23:27:41;12.60;99.90
20370;DHT22;10344;47.592;9.600;2022-10-16T23:30:42;12.60;99.90
20370;DHT22;10344;47.592;9.600;2022-10-16T23:33:21;12.50;99.90
20370;DHT22;10344;47.592;9.600;2022-10-16T23:35:51;12.50;99.90
20370;DHT22;10344;47.592;9.600;2022-10-16T23:38:34;12.50;99.90
20370;DHT22;10344;47.592;9.600;2022-10-16T23:41:33;12.50;99.90
20370;DHT22;10344;47.592;9.600;2022-10-16T23:43:59;12.40;99.90
20370;DHT22;10344;47.592;9.600;2022-10-16T23:46:53;12.40;99.90
20370;DHT22;10344;47.592;9.600;2022-10-16T23:49:46;12.40;99.90
20370;DHT22;10344;47.592;9.600;2022-10-16T23:52:38;12.50;99.90
20370;DHT22;10344;47.592;9.600;2022-10-16T23:55:10;12.60;99.90
20370;DHT22;10344;47.592;9.600;2022-10-16T23:57:45;12.60;99.90
